createdAt,value
2019-05-09T00:02:21.279Z,100.00
2019-05-09T00:04:53.152Z,100.00
2019-05-09T00:07:23.311Z,100.00
2019-05-09T00:09:53.435Z,100.00
2019-05-09T00:12:23.494Z,100.00
2019-05-09T00:14:53.979Z,100.00
2019-05-09T00:17:23.848Z,100.00
2019-05-09T00:19:55.441Z,100.00
2019-05-09T00:22:25.214Z,100.00
2019-05-09T00:24:54.919Z,100.00
2019-05-09T00:27:24.685Z,100.00
2019-05-09T00:29:54.543Z,100.00
2019-05-09T00:32:26.262Z,100.00
2019-05-09T00:35:04.004Z,100.00
2019-05-09T00:37:53.548Z,100.00
2019-05-09T00:40:24.449Z,100.00
2019-05-09T00:42:55.861Z,100.00
2019-05-09T00:45:33.424Z,100.00
2019-05-09T00:48:03.544Z,100.00
2019-05-09T00:50:34.168Z,100.00
2019-05-09T00:53:04.143Z,100.00
2019-05-09T00:55:33.873Z,100.00
2019-05-09T00:58:04.170Z,100.00
2019-05-09T01:00:34.300Z,100.00
2019-05-09T01:03:04.093Z,100.00
2019-05-09T01:05:34.316Z,100.00
2019-05-09T01:08:04.790Z,100.00
2019-05-09T01:10:34.461Z,100.00
2019-05-09T01:13:04.223Z,100.00
2019-05-09T01:15:34.125Z,100.00
2019-05-09T01:18:04.598Z,100.00
2019-05-09T01:20:34.558Z,100.00
2019-05-09T01:23:04.338Z,100.00
2019-05-09T01:25:34.113Z,100.00
2019-05-09T01:28:03.877Z,100.00
2019-05-09T01:30:33.795Z,100.00
2019-05-09T01:33:13.765Z,100.00
2019-05-09T01:35:43.543Z,100.00
2019-05-09T01:38:14.282Z,100.00
2019-05-09T01:40:44.281Z,100.00
2019-05-09T01:43:14.099Z,100.00
2019-05-09T01:45:47.005Z,100.00
2019-05-09T01:48:19.937Z,100.00
2019-05-09T01:50:49.618Z,100.00
2019-05-09T01:53:21.059Z,100.00
2019-05-09T01:56:00.313Z,100.00
2019-05-09T01:58:34.245Z,100.00
2019-05-09T02:01:06.001Z,100.00
2019-05-09T02:03:35.721Z,100.00
2019-05-09T02:06:05.933Z,100.00
2019-05-09T02:08:35.634Z,100.00
2019-05-09T02:11:05.565Z,100.00
2019-05-09T02:13:35.285Z,100.00
2019-05-09T02:16:09.119Z,100.00
2019-05-09T02:18:44.125Z,100.00
2019-05-09T02:21:14.636Z,100.00
2019-05-09T02:23:44.492Z,100.00
2019-05-09T02:26:14.352Z,100.00
2019-05-09T02:28:44.054Z,100.00
2019-05-09T02:31:16.167Z,100.00
2019-05-09T02:33:45.893Z,100.00
2019-05-09T02:36:18.676Z,100.00
2019-05-09T02:38:48.824Z,100.00
2019-05-09T02:41:19.637Z,100.00
2019-05-09T02:43:50.017Z,100.00
2019-05-09T02:46:21.740Z,100.00
2019-05-09T02:48:51.536Z,100.00
2019-05-09T02:51:21.234Z,100.00
2019-05-09T02:53:51.078Z,100.00
2019-05-09T02:56:20.974Z,100.00
2019-05-09T02:58:59.018Z,100.00
2019-05-09T03:01:30.658Z,100.00
2019-05-09T03:04:00.524Z,100.00
2019-05-09T03:06:30.413Z,100.00
2019-05-09T03:09:01.797Z,100.00
2019-05-09T03:11:31.665Z,100.00
2019-05-09T03:14:01.867Z,100.00
2019-05-09T03:16:31.586Z,100.00
2019-05-09T03:19:01.378Z,100.00
2019-05-09T03:21:38.760Z,100.00
2019-05-09T03:24:09.782Z,100.00
2019-05-09T03:26:39.895Z,100.00
2019-05-09T03:29:11.404Z,100.00
2019-05-09T03:31:42.759Z,100.00
2019-05-09T03:34:12.494Z,100.00
2019-05-09T03:36:42.318Z,100.00
2019-05-09T03:39:12.188Z,100.00
2019-05-09T03:41:42.106Z,100.00
2019-05-09T03:44:11.974Z,100.00
2019-05-09T03:46:47.637Z,100.00
2019-05-09T03:49:21.868Z,100.00
2019-05-09T03:51:51.614Z,100.00
2019-05-09T03:54:21.346Z,100.00
2019-05-09T03:57:10.770Z,100.00
2019-05-09T03:59:40.501Z,100.00
2019-05-09T04:02:10.467Z,100.00
2019-05-09T04:04:40.184Z,100.00
2019-05-09T04:07:09.958Z,100.00
2019-05-09T04:09:39.932Z,100.00
2019-05-09T04:12:09.805Z,100.00
2019-05-09T04:14:40.016Z,100.00
2019-05-09T04:17:11.592Z,100.00
2019-05-09T04:19:41.401Z,100.00
2019-05-09T04:22:11.189Z,100.00
2019-05-09T04:24:41.021Z,100.00
2019-05-09T04:27:12.527Z,100.00
2019-05-09T04:29:42.347Z,100.00
2019-05-09T04:32:12.145Z,100.00
2019-05-09T04:34:42.015Z,100.00
2019-05-09T04:37:12.335Z,100.00
2019-05-09T04:39:42.057Z,100.00
2019-05-09T04:42:11.748Z,100.00
2019-05-09T04:44:43.102Z,100.00
2019-05-09T04:47:12.837Z,100.00
2019-05-09T04:49:45.122Z,100.00
2019-05-09T04:52:13.920Z,100.00
2019-05-09T04:54:43.716Z,100.00
2019-05-09T04:57:13.425Z,100.00
2019-05-09T04:59:43.113Z,100.00
2019-05-09T05:02:20.496Z,100.00
2019-05-09T05:04:50.354Z,99.84
2019-05-09T05:07:20.104Z,97.73
2019-05-09T05:09:49.877Z,97.80
2019-05-09T05:12:19.549Z,95.87
2019-05-09T05:14:49.396Z,97.19
2019-05-09T05:17:19.142Z,97.87
2019-05-09T05:19:49.663Z,97.61
2019-05-09T05:22:28.356Z,95.99
2019-05-09T05:25:00.051Z,95.48
2019-05-09T05:27:29.784Z,94.64
2019-05-09T05:29:59.707Z,93.22
2019-05-09T05:32:43.057Z,93.76
2019-05-09T05:35:32.980Z,92.58
2019-05-09T05:38:02.680Z,92.52
2019-05-09T05:40:33.909Z,92.67
2019-05-09T05:43:03.830Z,90.93
2019-05-09T05:45:37.381Z,91.07
2019-05-09T05:48:14.142Z,91.36
2019-05-09T05:50:43.935Z,92.29
2019-05-09T05:53:13.644Z,91.48
2019-05-09T05:55:43.378Z,92.08
2019-05-09T05:58:13.134Z,91.10
2019-05-09T06:00:42.930Z,90.63
2019-05-09T06:03:12.679Z,92.00
2019-05-09T06:05:42.441Z,91.99
2019-05-09T06:08:12.171Z,93.68
2019-05-09T06:10:41.947Z,93.54
2019-05-09T06:13:11.738Z,93.89
2019-05-09T06:15:41.790Z,94.11
2019-05-09T06:18:11.545Z,93.49
2019-05-09T06:20:41.618Z,93.68
2019-05-09T06:23:11.374Z,91.05
2019-05-09T06:25:41.117Z,87.24
2019-05-09T06:28:10.792Z,84.88
2019-05-09T06:30:41.326Z,84.05
2019-05-09T06:33:11.326Z,82.34
2019-05-09T06:35:41.016Z,77.28
2019-05-09T06:38:10.880Z,77.75
2019-05-09T06:40:40.798Z,79.86
2019-05-09T06:43:18.347Z,82.47
2019-05-09T06:46:08.143Z,80.63
2019-05-09T06:48:38.911Z,76.39
2019-05-09T06:51:08.675Z,71.65
2019-05-09T06:53:38.396Z,66.47
2019-05-09T06:56:08.293Z,63.25
2019-05-09T06:58:39.760Z,67.25
2019-05-09T07:01:18.246Z,73.34
2019-05-09T07:03:57.548Z,74.97
2019-05-09T07:06:31.666Z,78.99
2019-05-09T07:09:03.187Z,81.88
2019-05-09T07:11:33.012Z,84.93
2019-05-09T07:14:02.803Z,86.22
2019-05-09T07:16:32.689Z,86.37
2019-05-09T07:19:02.421Z,87.38
2019-05-09T07:21:49.669Z,88.00
2019-05-09T07:24:20.376Z,87.27
2019-05-09T07:26:50.099Z,86.83
2019-05-09T07:29:20.043Z,86.47
2019-05-09T07:31:51.414Z,86.02
2019-05-09T07:34:22.981Z,86.70
2019-05-09T07:36:52.752Z,85.01
2019-05-09T07:39:22.691Z,85.42
2019-05-09T07:41:52.420Z,83.80
2019-05-09T07:44:22.186Z,83.47
2019-05-09T07:46:59.576Z,84.42
2019-05-09T07:49:30.018Z,84.75
2019-05-09T07:52:06.092Z,85.05
2019-05-09T07:54:31.278Z,84.51
2019-05-09T07:57:01.068Z,81.93
2019-05-09T07:59:30.813Z,82.66
2019-05-09T08:02:00.639Z,81.06
2019-05-09T08:04:30.372Z,80.05
2019-05-09T08:07:00.335Z,80.40
2019-05-09T08:09:30.071Z,80.30
2019-05-09T08:11:59.856Z,80.82
2019-05-09T08:14:29.606Z,80.51
2019-05-09T08:16:59.388Z,80.09
2019-05-09T08:19:29.379Z,81.69
2019-05-09T08:21:59.126Z,81.55
2019-05-09T08:24:28.945Z,81.99
2019-05-09T08:26:58.714Z,80.98
2019-05-09T08:29:28.616Z,80.99
2019-05-09T08:31:58.526Z,81.05
2019-05-09T08:34:28.598Z,81.78
2019-05-09T08:36:58.386Z,80.58
2019-05-09T08:39:28.287Z,81.72
2019-05-09T08:41:59.453Z,81.86
2019-05-09T08:44:31.216Z,79.50
2019-05-09T08:47:01.213Z,79.61
2019-05-09T08:49:41.839Z,78.73
2019-05-09T08:52:16.326Z,79.35
2019-05-09T08:54:48.846Z,79.00
2019-05-09T08:57:18.740Z,77.95
2019-05-09T08:59:50.709Z,74.84
2019-05-09T09:02:22.337Z,73.38
2019-05-09T09:04:51.633Z,73.22
2019-05-09T09:07:21.353Z,74.64
2019-05-09T09:09:51.112Z,76.12
2019-05-09T09:12:30.392Z,74.82
2019-05-09T09:14:52.404Z,74.80
2019-05-09T09:17:22.158Z,72.80
2019-05-09T09:19:51.875Z,75.04
2019-05-09T09:22:22.481Z,73.38
2019-05-09T09:24:52.244Z,75.18
2019-05-09T09:27:22.240Z,72.06
2019-05-09T09:29:52.015Z,74.70
2019-05-09T09:32:21.799Z,74.73
2019-05-09T09:34:51.514Z,74.96
2019-05-09T09:37:21.374Z,75.35
2019-05-09T09:39:51.574Z,73.20
2019-05-09T09:42:21.400Z,74.46
2019-05-09T09:44:51.209Z,72.17
2019-05-09T09:47:23.465Z,72.67
2019-05-09T09:49:55.092Z,71.16
2019-05-09T09:52:24.004Z,69.87
2019-05-09T09:54:53.805Z,71.82
2019-05-09T09:57:23.889Z,72.91
2019-05-09T09:59:55.334Z,71.58
2019-05-09T10:02:27.939Z,73.53
2019-05-09T10:04:57.995Z,74.61
2019-05-09T10:07:28.053Z,74.06
2019-05-09T10:09:58.482Z,72.75
2019-05-09T10:12:29.134Z,72.05
2019-05-09T10:15:19.006Z,70.43
2019-05-09T10:17:58.974Z,69.46
2019-05-09T10:20:30.631Z,71.26
2019-05-09T10:23:11.130Z,69.86
2019-05-09T10:25:31.873Z,68.19
2019-05-09T10:28:01.638Z,68.32
2019-05-09T10:30:34.194Z,69.39
2019-05-09T10:33:04.111Z,68.99
2019-05-09T10:35:33.810Z,67.95
2019-05-09T10:38:03.627Z,66.36
2019-05-09T10:40:33.680Z,66.47
2019-05-09T10:43:08.218Z,64.29
2019-05-09T10:45:45.636Z,62.77
2019-05-09T10:48:15.402Z,63.74
2019-05-09T10:50:47.844Z,60.99
2019-05-09T10:53:17.985Z,61.87
2019-05-09T10:55:48.284Z,65.88
2019-05-09T10:58:20.238Z,62.75
2019-05-09T11:00:49.732Z,63.27
2019-05-09T11:03:20.064Z,64.50
2019-05-09T11:05:49.786Z,65.18
2019-05-09T11:08:20.055Z,60.11
2019-05-09T11:10:49.971Z,60.54
2019-05-09T11:13:20.186Z,58.04
2019-05-09T11:15:50.230Z,61.66
2019-05-09T11:18:20.049Z,60.51
2019-05-09T11:20:49.857Z,60.50
2019-05-09T11:23:19.745Z,57.77
2019-05-09T11:25:49.859Z,57.81
2019-05-09T11:28:19.765Z,57.87
2019-05-09T11:30:49.787Z,59.30
2019-05-09T11:33:19.662Z,59.96
2019-05-09T11:35:49.531Z,59.81
2019-05-09T11:38:32.181Z,59.20
2019-05-09T11:40:51.226Z,59.42
2019-05-09T11:43:21.104Z,57.50
2019-05-09T11:45:51.166Z,57.25
2019-05-09T11:48:21.402Z,58.26
2019-05-09T11:50:51.276Z,57.03
2019-05-09T11:53:21.115Z,56.76
2019-05-09T11:55:50.949Z,56.88
2019-05-09T11:58:20.818Z,57.40
2019-05-09T12:00:50.869Z,56.97
2019-05-09T12:03:20.743Z,59.16
2019-05-09T12:05:50.548Z,58.69
2019-05-09T12:08:20.345Z,60.19
2019-05-09T12:10:50.155Z,58.68
2019-05-09T12:13:21.685Z,59.61
2019-05-09T12:15:51.528Z,58.35
2019-05-09T12:18:21.272Z,57.59
2019-05-09T12:20:51.213Z,55.67
2019-05-09T12:23:21.159Z,54.84
2019-05-09T12:25:51.014Z,55.02
2019-05-09T12:28:21.107Z,56.67
2019-05-09T12:30:50.859Z,52.85
2019-05-09T12:33:20.794Z,55.84
2019-05-09T12:35:50.609Z,54.07
2019-05-09T12:38:20.567Z,54.74
2019-05-09T12:40:50.505Z,55.86
2019-05-09T12:43:20.374Z,54.78
2019-05-09T12:45:50.249Z,53.41
2019-05-09T12:48:20.231Z,55.75
2019-05-09T12:50:49.959Z,56.50
2019-05-09T12:53:22.774Z,55.86
2019-05-09T12:55:54.207Z,53.55
2019-05-09T12:58:29.794Z,54.95
2019-05-09T13:00:59.959Z,52.67
2019-05-09T13:03:30.126Z,51.82
2019-05-09T13:05:59.925Z,51.79
2019-05-09T13:08:30.167Z,52.35
2019-05-09T13:11:02.501Z,52.67
2019-05-09T13:13:32.289Z,53.03
2019-05-09T13:16:14.232Z,55.37
2019-05-09T13:19:02.701Z,50.67
2019-05-09T13:21:33.415Z,52.48
2019-05-09T13:24:03.377Z,54.85
2019-05-09T13:26:33.174Z,52.33
2019-05-09T13:29:03.062Z,51.68
2019-05-09T13:31:34.797Z,52.72
2019-05-09T13:34:04.462Z,56.61
2019-05-09T13:36:34.248Z,56.92
2019-05-09T13:39:08.406Z,55.15
2019-05-09T13:41:38.333Z,53.83
2019-05-09T13:44:13.709Z,52.58
2019-05-09T13:46:40.522Z,50.28
2019-05-09T13:49:14.295Z,54.37
2019-05-09T13:51:48.689Z,54.52
2019-05-09T13:54:13.597Z,54.71
2019-05-09T13:56:43.389Z,53.63
2019-05-09T13:59:13.251Z,56.56
2019-05-09T14:01:44.425Z,53.96
2019-05-09T14:04:14.315Z,54.10
2019-05-09T14:06:44.197Z,51.43
2019-05-09T14:09:14.073Z,52.90
2019-05-09T14:11:43.849Z,50.43
2019-05-09T14:14:13.593Z,53.48
2019-05-09T14:16:43.349Z,51.42
2019-05-09T14:19:39.513Z,50.97
2019-05-09T14:21:47.978Z,49.73
2019-05-09T14:24:19.172Z,49.63
2019-05-09T14:26:48.593Z,50.77
2019-05-09T14:29:20.430Z,54.87
2019-05-09T14:31:49.978Z,52.26
2019-05-09T14:34:19.967Z,52.66
2019-05-09T14:36:49.863Z,53.78
2019-05-09T14:39:19.769Z,53.98
2019-05-09T14:41:49.750Z,56.30
2019-05-09T14:44:19.593Z,60.00
2019-05-09T14:46:52.994Z,59.56
2019-05-09T14:49:22.782Z,61.98
2019-05-09T14:51:52.520Z,61.32
2019-05-09T14:54:22.326Z,61.98
2019-05-09T14:56:53.039Z,61.54
2019-05-09T14:59:22.828Z,59.87
2019-05-09T15:01:52.732Z,61.84
2019-05-09T15:04:22.727Z,62.06
2019-05-09T15:06:52.483Z,61.94
2019-05-09T15:09:22.358Z,62.05
2019-05-09T15:11:52.185Z,62.46
2019-05-09T15:14:22.119Z,62.64
2019-05-09T15:16:51.937Z,63.07
2019-05-09T15:19:21.825Z,60.03
2019-05-09T15:21:51.556Z,60.75
2019-05-09T15:24:21.314Z,61.70
2019-05-09T15:26:51.132Z,61.10
2019-05-09T15:29:20.851Z,60.45
2019-05-09T15:31:54.250Z,60.37
2019-05-09T15:34:22.146Z,59.77
2019-05-09T15:36:52.030Z,59.46
2019-05-09T15:39:21.823Z,58.28
2019-05-09T15:41:52.050Z,59.91
2019-05-09T15:44:23.515Z,56.95
2019-05-09T15:47:18.380Z,56.37
2019-05-09T15:49:49.412Z,54.14
2019-05-09T15:52:19.349Z,55.28
2019-05-09T15:54:49.114Z,52.68
2019-05-09T15:57:18.860Z,53.25
2019-05-09T15:59:48.651Z,56.43
2019-05-09T16:02:19.245Z,56.59
2019-05-09T16:04:49.112Z,57.84
2019-05-09T16:07:18.914Z,59.15
2019-05-09T16:09:48.809Z,60.53
2019-05-09T16:12:18.675Z,58.54
2019-05-09T16:14:48.729Z,59.07
2019-05-09T16:17:19.221Z,61.43
2019-05-09T16:19:49.268Z,60.43
2019-05-09T16:22:19.252Z,60.01
2019-05-09T16:24:48.969Z,59.46
2019-05-09T16:27:18.707Z,60.34
2019-05-09T16:29:48.768Z,59.03
2019-05-09T16:32:18.809Z,60.19
2019-05-09T16:34:48.577Z,61.43
2019-05-09T16:37:18.388Z,60.20
2019-05-09T16:39:48.122Z,59.99
2019-05-09T16:42:18.018Z,60.13
2019-05-09T16:44:48.183Z,59.31
2019-05-09T16:47:21.873Z,57.87
2019-05-09T16:49:50.661Z,58.64
2019-05-09T16:52:20.464Z,58.69
2019-05-09T16:54:51.855Z,58.67
2019-05-09T16:57:21.854Z,59.30
2019-05-09T16:59:51.590Z,59.72
2019-05-09T17:02:24.918Z,59.94
2019-05-09T17:04:53.067Z,59.86
2019-05-09T17:07:22.830Z,61.22
2019-05-09T17:09:52.801Z,61.50
2019-05-09T17:12:22.712Z,61.70
2019-05-09T17:14:52.591Z,61.72
2019-05-09T17:17:22.509Z,62.43
2019-05-09T17:19:52.442Z,63.63
2019-05-09T17:22:24.092Z,63.88
2019-05-09T17:24:53.842Z,63.95
2019-05-09T17:27:23.727Z,64.41
2019-05-09T17:29:53.563Z,64.32
2019-05-09T17:32:23.470Z,64.87
2019-05-09T17:34:53.307Z,65.34
2019-05-09T17:37:23.176Z,64.24
2019-05-09T17:39:53.076Z,65.68
2019-05-09T17:42:22.896Z,67.95
2019-05-09T17:44:52.652Z,68.95
2019-05-09T17:47:22.461Z,68.71
2019-05-09T17:49:52.558Z,68.47
2019-05-09T17:52:22.348Z,68.34
2019-05-09T17:54:52.172Z,68.07
2019-05-09T17:57:22.016Z,68.05
2019-05-09T17:59:51.980Z,66.88
2019-05-09T18:02:22.737Z,67.09
2019-05-09T18:04:52.557Z,67.28
2019-05-09T18:07:22.358Z,67.49
2019-05-09T18:09:52.247Z,66.41
2019-05-09T18:12:22.137Z,67.08
2019-05-09T18:14:52.008Z,67.44
2019-05-09T18:17:21.773Z,68.24
2019-05-09T18:19:51.528Z,68.55
2019-05-09T18:22:21.443Z,68.75
2019-05-09T18:24:51.260Z,68.68
2019-05-09T18:27:21.068Z,69.11
2019-05-09T18:29:50.890Z,69.09
2019-05-09T18:32:34.765Z,69.89
2019-05-09T18:35:16.849Z,70.50
2019-05-09T18:37:48.120Z,71.53
2019-05-09T18:40:18.801Z,72.13
2019-05-09T18:42:48.963Z,72.53
2019-05-09T18:45:19.958Z,73.40
2019-05-09T18:47:50.069Z,73.82
2019-05-09T18:50:19.973Z,74.66
2019-05-09T18:52:49.806Z,75.29
2019-05-09T18:55:20.119Z,75.97
2019-05-09T18:57:50.098Z,76.45
2019-05-09T19:00:21.624Z,77.18
2019-05-09T19:02:51.688Z,77.10
2019-05-09T19:05:21.793Z,77.39
2019-05-09T19:07:51.636Z,76.58
2019-05-09T19:10:21.504Z,76.54
2019-05-09T19:12:51.281Z,76.27
2019-05-09T19:15:34.971Z,76.55
2019-05-09T19:18:23.605Z,77.29
2019-05-09T19:20:57.941Z,77.81
2019-05-09T19:23:27.764Z,78.62
2019-05-09T19:26:00.466Z,79.42
2019-05-09T19:28:31.886Z,79.87
2019-05-09T19:31:06.503Z,80.40
2019-05-09T19:33:36.298Z,80.17
2019-05-09T19:36:06.360Z,79.68
2019-05-09T19:38:37.751Z,79.71
2019-05-09T19:41:07.542Z,80.23
2019-05-09T19:43:37.383Z,80.49
2019-05-09T19:46:10.452Z,80.66
2019-05-09T19:48:40.533Z,80.25
2019-05-09T19:51:10.467Z,79.73
2019-05-09T19:53:40.383Z,79.50
2019-05-09T19:56:10.201Z,79.61
2019-05-09T19:58:40.030Z,79.72
2019-05-09T20:01:09.941Z,79.63
2019-05-09T20:03:39.898Z,79.56
2019-05-09T20:06:09.791Z,79.80
2019-05-09T20:08:39.631Z,79.81
2019-05-09T20:11:23.539Z,79.66
2019-05-09T20:13:57.603Z,79.64
2019-05-09T20:16:33.417Z,79.10
2019-05-09T20:19:05.149Z,78.94
2019-05-09T20:21:36.996Z,78.90
2019-05-09T20:24:09.330Z,78.46
2019-05-09T20:26:41.805Z,78.67
2019-05-09T20:29:12.014Z,78.49
2019-05-09T20:31:43.383Z,78.45
2019-05-09T20:34:13.993Z,78.82
2019-05-09T20:36:44.251Z,78.84
2019-05-09T20:39:16.380Z,78.68
2019-05-09T20:41:50.687Z,78.52
2019-05-09T20:44:22.124Z,79.38
2019-05-09T20:46:52.631Z,79.36
2019-05-09T20:49:30.199Z,79.40
2019-05-09T20:52:02.189Z,79.38
2019-05-09T20:54:34.541Z,79.04
2019-05-09T20:57:08.105Z,79.40
2019-05-09T20:59:43.488Z,79.31
2019-05-09T21:02:15.601Z,79.55
2019-05-09T21:04:48.543Z,80.21
2019-05-09T21:07:19.594Z,80.44
2019-05-09T21:10:03.396Z,80.58
2019-05-09T21:12:36.045Z,80.57
2019-05-09T21:15:09.733Z,80.68
2019-05-09T21:17:43.962Z,81.11
2019-05-09T21:20:15.348Z,81.08
2019-05-09T21:22:45.462Z,81.60
2019-05-09T21:25:15.498Z,81.12
2019-05-09T21:27:48.889Z,81.01
2019-05-09T21:30:22.158Z,80.75
2019-05-09T21:32:53.475Z,81.34
2019-05-09T21:35:23.356Z,81.80
2019-05-09T21:37:56.997Z,81.96
2019-05-09T21:40:26.849Z,81.87
2019-05-09T21:42:58.271Z,82.40
2019-05-09T21:45:29.219Z,82.59
2019-05-09T21:48:00.193Z,82.81
2019-05-09T21:50:31.154Z,83.55
2019-05-09T21:53:01.137Z,83.07
2019-05-09T21:55:30.993Z,82.79
2019-05-09T21:58:01.624Z,83.06
2019-05-09T22:00:35.656Z,82.84
2019-05-09T22:03:07.199Z,83.60
2019-05-09T22:05:37.677Z,83.60
2019-05-09T22:08:07.685Z,83.43
2019-05-09T22:10:37.544Z,83.54
2019-05-09T22:13:07.379Z,83.23
2019-05-09T22:15:37.230Z,83.64
2019-05-09T22:18:06.978Z,83.52
2019-05-09T22:20:36.650Z,83.77
2019-05-09T22:23:06.808Z,83.12
2019-05-09T22:25:36.627Z,83.19
2019-05-09T22:28:06.715Z,82.86
2019-05-09T22:30:36.395Z,82.39
2019-05-09T22:33:06.109Z,82.27
2019-05-09T22:35:35.807Z,82.86
2019-05-09T22:38:05.572Z,83.60
2019-05-09T22:40:35.282Z,83.39
2019-05-09T22:43:05.120Z,82.57
2019-05-09T22:45:35.036Z,82.89
2019-05-09T22:48:05.861Z,83.14
2019-05-09T22:50:35.597Z,83.78
2019-05-09T22:53:05.592Z,83.58
2019-05-09T22:55:37.939Z,83.64
2019-05-09T22:58:07.061Z,85.07
2019-05-09T23:00:37.053Z,86.31
2019-05-09T23:03:06.911Z,87.21
2019-05-09T23:05:36.721Z,87.49
2019-05-09T23:08:06.534Z,87.65
2019-05-09T23:10:36.281Z,86.52
2019-05-09T23:13:06.067Z,85.01
2019-05-09T23:15:38.053Z,86.08
2019-05-09T23:18:07.855Z,86.94
2019-05-09T23:20:47.994Z,86.86
2019-05-09T23:23:22.419Z,86.67
2019-05-09T23:25:52.212Z,86.08
2019-05-09T23:28:22.106Z,86.71
2019-05-09T23:30:53.484Z,86.15
2019-05-09T23:33:24.811Z,86.46
2019-05-09T23:35:54.767Z,86.91
2019-05-09T23:38:24.618Z,86.48
2019-05-09T23:40:54.730Z,86.55
2019-05-09T23:43:24.475Z,86.81
2019-05-09T23:45:54.434Z,87.08
2019-05-09T23:48:55.184Z,86.84
2019-05-09T23:51:26.612Z,86.97
2019-05-09T23:53:55.567Z,87.69
2019-05-09T23:56:43.106Z,88.29
2019-05-09T23:59:30.787Z,87.25
